createdAt,value
2018-09-05T00:00:19.466Z,99.12
2018-09-05T00:01:24.427Z,99.17
2018-09-05T00:02:29.112Z,98.93
2018-09-05T00:03:35.262Z,98.72
2018-09-05T00:04:42.865Z,98.87
2018-09-05T00:05:47.521Z,98.96
2018-09-05T00:06:52.663Z,98.61
2018-09-05T00:07:57.365Z,98.52
2018-09-05T00:09:01.996Z,98.35
2018-09-05T00:10:06.841Z,98.74
2018-09-05T00:11:11.672Z,98.33
2018-09-05T00:12:16.440Z,98.48
2018-09-05T00:13:22.298Z,98.54
2018-09-05T00:14:27.399Z,98.65
2018-09-05T00:15:32.129Z,98.28
2018-09-05T00:16:36.934Z,98.09
2018-09-05T00:17:41.893Z,98.56
2018-09-05T00:18:46.706Z,98.10
2018-09-05T00:19:52.440Z,98.36
2018-09-05T00:20:57.125Z,98.10
2018-09-05T00:22:01.806Z,98.28
2018-09-05T00:23:07.434Z,98.23
2018-09-05T00:24:12.288Z,98.00
2018-09-05T00:25:17.113Z,98.31
2018-09-05T00:26:22.342Z,98.33
2018-09-05T00:27:27.073Z,98.28
2018-09-05T00:28:31.727Z,98.61
2018-09-05T00:29:36.672Z,98.40
2018-09-05T00:30:41.343Z,98.62
2018-09-05T00:31:46.024Z,98.72
2018-09-05T00:32:51.071Z,98.51
2018-09-05T00:33:55.895Z,98.54
2018-09-05T00:35:00.538Z,98.62
2018-09-05T00:36:05.359Z,98.73
2018-09-05T00:37:10.047Z,98.49
2018-09-05T00:38:14.727Z,98.48
2018-09-05T00:39:19.732Z,98.52
2018-09-05T00:40:24.375Z,98.18
2018-09-05T00:41:29.087Z,98.23
2018-09-05T00:42:33.928Z,98.32
2018-09-05T00:43:38.696Z,98.38
2018-09-05T00:44:43.545Z,98.25
2018-09-05T00:45:49.255Z,98.15
2018-09-05T00:46:54.237Z,98.38
2018-09-05T00:47:58.984Z,98.13
2018-09-05T00:49:04.268Z,98.10
2018-09-05T00:50:09.171Z,98.09
2018-09-05T00:51:14.292Z,98.12
2018-09-05T00:52:20.408Z,98.19
2018-09-05T00:53:25.637Z,97.92
2018-09-05T00:54:30.491Z,98.13
2018-09-05T00:55:35.358Z,98.21
2018-09-05T00:56:40.377Z,97.76
2018-09-05T00:57:46.104Z,97.95
2018-09-05T00:58:51.167Z,97.62
2018-09-05T00:59:56.007Z,97.93
2018-09-05T01:01:00.888Z,97.78
2018-09-05T01:02:05.691Z,97.76
2018-09-05T01:03:16.629Z,97.53
2018-09-05T01:04:21.510Z,97.61
2018-09-05T01:05:26.692Z,97.73
2018-09-05T01:06:31.658Z,97.75
2018-09-05T01:07:36.434Z,97.38
2018-09-05T01:08:41.298Z,97.55
2018-09-05T01:09:46.206Z,97.67
2018-09-05T01:10:50.834Z,97.39
2018-09-05T01:11:55.744Z,97.29
2018-09-05T01:13:00.413Z,97.33
2018-09-05T01:14:05.062Z,97.30
2018-09-05T01:15:09.806Z,97.26
2018-09-05T01:16:14.475Z,97.21
2018-09-05T01:17:19.152Z,97.33
2018-09-05T01:18:24.112Z,97.33
2018-09-05T01:19:28.687Z,96.99
2018-09-05T01:20:33.358Z,97.53
2018-09-05T01:21:37.977Z,97.13
2018-09-05T01:22:42.638Z,97.35
2018-09-05T01:23:47.249Z,96.98
2018-09-05T01:24:52.323Z,97.18
2018-09-05T01:25:56.927Z,97.05
2018-09-05T01:27:01.521Z,97.50
2018-09-05T01:28:06.221Z,97.17
2018-09-05T01:29:10.827Z,96.90
2018-09-05T01:30:15.482Z,97.10
2018-09-05T01:31:20.559Z,97.11
2018-09-05T01:32:25.172Z,97.29
2018-09-05T01:33:29.796Z,97.08
2018-09-05T01:34:34.517Z,97.08
2018-09-05T01:35:39.108Z,96.95
2018-09-05T01:36:44.065Z,97.14
2018-09-05T01:37:49.039Z,97.18
2018-09-05T01:38:53.629Z,96.98
2018-09-05T01:39:58.247Z,97.10
2018-09-05T01:41:02.913Z,97.28
2018-09-05T01:42:07.788Z,97.12
2018-09-05T01:43:12.425Z,97.25
2018-09-05T01:44:17.556Z,97.01
2018-09-05T01:45:22.173Z,96.84
2018-09-05T01:46:27.471Z,96.85
2018-09-05T01:47:33.455Z,96.58
2018-09-05T01:48:38.695Z,96.96
2018-09-05T01:49:43.561Z,97.00
2018-09-05T01:50:48.620Z,96.98
2018-09-05T01:51:58.296Z,96.64
2018-09-05T01:53:03.086Z,96.93
2018-09-05T01:54:07.892Z,96.76
2018-09-05T01:55:12.609Z,96.77
2018-09-05T01:56:17.415Z,96.59
2018-09-05T01:57:22.641Z,96.79
2018-09-05T01:58:27.386Z,96.83
2018-09-05T01:59:32.135Z,96.79
2018-09-05T02:00:36.934Z,96.82
2018-09-05T02:01:41.666Z,96.49
2018-09-05T02:02:47.414Z,96.80
2018-09-05T02:03:52.716Z,96.78
2018-09-05T02:04:57.632Z,96.43
2018-09-05T02:06:02.390Z,96.61
2018-09-05T02:07:07.115Z,96.47
2018-09-05T02:08:11.771Z,96.41
2018-09-05T02:09:16.508Z,96.53
2018-09-05T02:10:22.345Z,96.71
2018-09-05T02:11:26.986Z,96.70
2018-09-05T02:12:31.633Z,96.53
2018-09-05T02:13:36.276Z,96.36
2018-09-05T02:14:40.877Z,96.37
2018-09-05T02:15:45.504Z,96.71
2018-09-05T02:16:50.484Z,96.71
2018-09-05T02:17:55.270Z,96.68
2018-09-05T02:18:59.962Z,96.58
2018-09-05T02:20:04.738Z,96.81
2018-09-05T02:21:09.985Z,96.80
2018-09-05T02:22:14.697Z,96.76
2018-09-05T02:23:19.972Z,96.74
2018-09-05T02:24:24.702Z,96.74
2018-09-05T02:25:30.556Z,96.70
2018-09-05T02:26:35.973Z,96.70
2018-09-05T02:27:42.142Z,96.95
2018-09-05T02:28:46.889Z,96.69
2018-09-05T02:29:52.156Z,97.10
2018-09-05T02:30:56.860Z,97.01
2018-09-05T02:32:01.566Z,96.94
2018-09-05T02:33:07.000Z,96.87
2018-09-05T02:34:11.711Z,96.97
2018-09-05T02:35:17.382Z,97.09
2018-09-05T02:36:22.099Z,96.79
2018-09-05T02:37:26.741Z,97.06
2018-09-05T02:38:31.344Z,97.02
2018-09-05T02:39:35.990Z,96.97
2018-09-05T02:40:40.663Z,96.75
2018-09-05T02:41:45.857Z,96.92
2018-09-05T02:42:50.465Z,96.69
2018-09-05T02:44:00.150Z,96.56
2018-09-05T02:45:04.790Z,96.93
2018-09-05T02:46:09.396Z,97.08
2018-09-05T02:47:14.023Z,96.91
2018-09-05T02:48:19.034Z,97.22
2018-09-05T02:49:23.662Z,96.91
2018-09-05T02:50:28.268Z,97.12
2018-09-05T02:51:32.956Z,97.42
2018-09-05T02:52:38.020Z,97.08
2018-09-05T02:53:42.662Z,97.07
2018-09-05T02:54:47.680Z,96.99
2018-09-05T02:55:57.235Z,96.96
2018-09-05T02:57:01.857Z,97.19
2018-09-05T02:58:06.457Z,97.24
2018-09-05T02:59:11.100Z,97.53
2018-09-05T03:00:15.848Z,97.53
2018-09-05T03:01:20.914Z,97.46
2018-09-05T03:02:25.578Z,97.67
2018-09-05T03:03:30.319Z,97.50
2018-09-05T03:04:35.096Z,97.46
2018-09-05T03:05:39.700Z,97.45
2018-09-05T03:06:44.379Z,97.32
2018-09-05T03:07:49.558Z,97.26
2018-09-05T03:08:54.309Z,97.09
2018-09-05T03:09:59.832Z,96.75
2018-09-05T03:11:04.567Z,97.05
2018-09-05T03:12:09.276Z,96.90
2018-09-05T03:13:14.067Z,96.97
2018-09-05T03:14:19.249Z,96.97
2018-09-05T03:15:23.969Z,96.95
2018-09-05T03:16:28.870Z,97.21
2018-09-05T03:17:33.613Z,97.22
2018-09-05T03:18:38.624Z,97.17
2018-09-05T03:19:43.447Z,97.53
2018-09-05T03:20:49.497Z,97.51
2018-09-05T03:21:54.267Z,97.51
2018-09-05T03:23:00.455Z,97.61
2018-09-05T03:24:06.469Z,97.59
2018-09-05T03:25:11.248Z,97.83
2018-09-05T03:26:16.858Z,98.07
2018-09-05T03:27:21.593Z,98.10
2018-09-05T03:28:26.331Z,98.04
2018-09-05T03:29:31.206Z,98.17
2018-09-05T03:30:35.995Z,98.19
2018-09-05T03:31:43.534Z,98.29
2018-09-05T03:32:49.829Z,98.32
2018-09-05T03:33:55.452Z,98.43
2018-09-05T03:35:00.097Z,98.29
2018-09-05T03:36:05.666Z,98.37
2018-09-05T03:37:10.490Z,98.38
2018-09-05T03:38:15.283Z,98.33
2018-09-05T03:39:20.517Z,98.42
2018-09-05T03:40:25.216Z,98.43
2018-09-05T03:41:29.961Z,98.44
2018-09-05T03:42:34.736Z,98.57
2018-09-05T03:43:39.849Z,98.67
2018-09-05T03:44:44.626Z,98.59
2018-09-05T03:45:49.986Z,98.37
2018-09-05T03:46:54.684Z,98.51
2018-09-05T03:47:59.502Z,98.22
2018-09-05T03:49:04.212Z,98.17
2018-09-05T03:50:09.305Z,98.30
2018-09-05T03:51:13.940Z,98.29
2018-09-05T03:52:19.104Z,98.31
2018-09-05T03:53:23.768Z,98.33
2018-09-05T03:54:28.438Z,98.27
2018-09-05T03:55:33.049Z,98.54
2018-09-05T03:56:37.692Z,98.59
2018-09-05T03:57:42.594Z,98.48
2018-09-05T03:58:49.086Z,98.63
2018-09-05T03:59:53.931Z,98.69
2018-09-05T04:00:58.591Z,98.86
2018-09-05T04:02:03.680Z,98.80
2018-09-05T04:03:08.288Z,98.84
2018-09-05T04:04:12.871Z,98.93
2018-09-05T04:05:17.925Z,99.12
2018-09-05T04:06:23.396Z,98.92
2018-09-05T04:07:28.375Z,98.86
2018-09-05T04:08:33.044Z,99.21
2018-09-05T04:09:37.675Z,98.95
2018-09-05T04:10:42.393Z,99.17
2018-09-05T04:11:47.389Z,99.19
2018-09-05T04:12:52.002Z,99.37
2018-09-05T04:13:56.597Z,99.36
2018-09-05T04:15:01.210Z,99.39
2018-09-05T04:16:05.797Z,99.45
2018-09-05T04:17:10.400Z,99.54
2018-09-05T04:18:15.516Z,99.37
2018-09-05T04:19:20.121Z,99.82
2018-09-05T04:20:24.768Z,99.80
2018-09-05T04:21:29.400Z,99.77
2018-09-05T04:22:34.013Z,99.84
2018-09-05T04:23:46.060Z,99.99
2018-09-05T04:24:50.684Z,99.91
2018-09-05T04:25:55.346Z,100.00
2018-09-05T04:26:59.990Z,100.00
2018-09-05T04:28:04.616Z,100.00
2018-09-05T04:29:09.265Z,100.00
2018-09-05T04:30:14.470Z,100.00
2018-09-05T04:31:19.283Z,100.00
2018-09-05T04:32:24.017Z,100.00
2018-09-05T04:33:28.768Z,100.00
2018-09-05T04:34:33.523Z,100.00
2018-09-05T04:35:38.315Z,100.00
2018-09-05T04:36:43.413Z,100.00
2018-09-05T04:37:48.225Z,100.00
2018-09-05T04:38:52.984Z,100.00
2018-09-05T04:39:57.745Z,100.00
2018-09-05T04:41:02.484Z,100.00
2018-09-05T04:42:07.280Z,100.00
2018-09-05T04:43:12.407Z,100.00
2018-09-05T04:44:17.375Z,100.00
2018-09-05T04:45:23.000Z,100.00
2018-09-05T04:46:27.750Z,100.00
2018-09-05T04:47:32.540Z,100.00
2018-09-05T04:48:37.408Z,99.91
2018-09-05T04:49:42.984Z,99.95
2018-09-05T04:50:47.697Z,100.00
2018-09-05T04:51:52.439Z,99.86
2018-09-05T04:52:57.172Z,99.92
2018-09-05T04:54:01.926Z,99.99
2018-09-05T04:55:06.934Z,99.82
2018-09-05T04:56:12.040Z,99.92
2018-09-05T04:57:18.849Z,100.00
2018-09-05T04:58:24.164Z,99.85
2018-09-05T04:59:29.012Z,99.96
2018-09-05T05:00:33.731Z,99.87
2018-09-05T05:01:38.525Z,99.99
2018-09-05T05:02:43.766Z,99.91
2018-09-05T05:03:48.417Z,99.90
2018-09-05T05:04:53.160Z,99.94
2018-09-05T05:05:57.898Z,99.71
2018-09-05T05:07:02.614Z,99.94
2018-09-05T05:08:07.440Z,100.00
2018-09-05T05:09:12.977Z,99.78
2018-09-05T05:10:17.644Z,99.96
2018-09-05T05:11:22.267Z,99.96
2018-09-05T05:12:26.953Z,99.91
2018-09-05T05:13:32.208Z,99.98
2018-09-05T05:14:36.981Z,99.97
2018-09-05T05:15:43.097Z,99.83
2018-09-05T05:16:47.868Z,99.82
2018-09-05T05:17:53.500Z,99.91
2018-09-05T05:18:58.224Z,99.76
2018-09-05T05:20:03.128Z,99.71
2018-09-05T05:21:07.845Z,99.67
2018-09-05T05:22:13.102Z,99.56
2018-09-05T05:23:17.882Z,99.53
2018-09-05T05:24:22.725Z,99.58
2018-09-05T05:25:27.558Z,99.53
2018-09-05T05:26:32.388Z,99.60
2018-09-05T05:27:37.457Z,99.59
2018-09-05T05:28:42.834Z,99.56
2018-09-05T05:29:47.589Z,99.31
2018-09-05T05:30:52.451Z,99.15
2018-09-05T05:34:11.244Z,99.57
2018-09-05T05:35:15.867Z,99.31
2018-09-05T05:36:20.552Z,99.38
2018-09-05T05:37:25.320Z,99.18
2018-09-05T05:38:30.592Z,99.18
2018-09-05T05:39:35.339Z,99.17
2018-09-05T05:40:40.505Z,99.22
2018-09-05T05:41:45.370Z,99.02
2018-09-05T05:42:51.251Z,98.87
2018-09-05T05:43:56.238Z,98.89
2018-09-05T05:45:01.241Z,98.78
2018-09-05T05:46:05.958Z,98.87
2018-09-05T05:47:11.698Z,99.12
2018-09-05T05:48:16.558Z,99.05
2018-09-05T05:49:21.443Z,98.83
2018-09-05T05:50:26.219Z,98.66
2018-09-05T05:51:31.095Z,98.49
2018-09-05T05:52:35.828Z,98.46
2018-09-05T05:53:41.396Z,98.42
2018-09-05T05:54:46.177Z,98.33
2018-09-05T05:55:50.842Z,98.02
2018-09-05T05:56:56.471Z,97.75
2018-09-05T05:58:01.430Z,98.06
2018-09-05T05:59:06.145Z,97.76
2018-09-05T06:00:11.267Z,97.50
2018-09-05T06:01:16.106Z,97.48
2018-09-05T06:02:20.756Z,97.46
2018-09-05T06:03:25.380Z,97.32
2018-09-05T06:04:30.195Z,97.38
2018-09-05T06:05:34.880Z,97.50
2018-09-05T06:06:40.791Z,97.27
2018-09-05T06:07:45.478Z,97.10
2018-09-05T06:08:50.248Z,96.85
2018-09-05T06:09:58.128Z,97.14
2018-09-05T06:11:02.891Z,97.12
2018-09-05T06:12:07.739Z,97.00
2018-09-05T06:13:12.764Z,97.46
2018-09-05T06:14:19.974Z,96.87
2018-09-05T06:15:25.663Z,97.49
2018-09-05T06:16:30.284Z,96.84
2018-09-05T06:17:35.608Z,96.45
2018-09-05T06:18:41.061Z,96.29
2018-09-05T06:19:46.061Z,96.00
2018-09-05T06:20:50.799Z,96.07
2018-09-05T06:21:55.566Z,95.40
2018-09-05T06:23:01.585Z,94.93
2018-09-05T06:24:06.320Z,94.51
2018-09-05T06:25:11.029Z,94.59
2018-09-05T06:26:15.935Z,94.27
2018-09-05T06:27:20.527Z,93.54
2018-09-05T06:28:25.225Z,92.91
2018-09-05T06:29:29.876Z,92.39
2018-09-05T06:30:34.673Z,91.40
2018-09-05T06:31:40.650Z,90.60
2018-09-05T06:32:47.809Z,89.79
2018-09-05T06:33:52.676Z,88.94
2018-09-05T06:34:57.648Z,87.44
2018-09-05T06:36:02.465Z,86.78
2018-09-05T06:37:07.098Z,86.60
2018-09-05T06:38:13.366Z,86.95
2018-09-05T06:39:19.004Z,86.20
2018-09-05T06:40:23.719Z,85.19
2018-09-05T06:41:28.512Z,84.64
2018-09-05T06:42:33.147Z,84.00
2018-09-05T06:43:37.972Z,82.99
2018-09-05T06:44:42.756Z,82.52
2018-09-05T06:45:48.845Z,82.27
2018-09-05T06:46:53.456Z,81.66
2018-09-05T06:47:58.994Z,81.16
2018-09-05T06:49:03.985Z,81.47
2018-09-05T06:50:08.817Z,80.80
2018-09-05T06:51:13.565Z,80.57
2018-09-05T06:52:18.720Z,79.53
2018-09-05T06:53:23.571Z,78.44
2018-09-05T06:54:29.918Z,77.58
2018-09-05T06:55:36.478Z,76.59
2018-09-05T06:56:42.434Z,75.25
2018-09-05T06:57:48.415Z,74.97
2018-09-05T06:58:54.384Z,75.31
2018-09-05T07:00:00.540Z,73.42
2018-09-05T07:01:06.279Z,73.51
2018-09-05T07:02:11.033Z,71.92
2018-09-05T07:03:16.890Z,71.65
2018-09-05T07:04:21.659Z,71.10
2018-09-05T07:05:26.868Z,71.05
2018-09-05T07:06:31.555Z,71.24
2018-09-05T07:07:36.269Z,70.02
2018-09-05T07:08:41.053Z,70.18
2018-09-05T07:09:46.613Z,68.40
2018-09-05T07:10:51.455Z,67.97
2018-09-05T07:11:57.249Z,67.41
2018-09-05T07:13:02.024Z,66.08
2018-09-05T07:14:06.965Z,65.56
2018-09-05T07:15:11.901Z,65.35
2018-09-05T07:16:16.751Z,65.23
2018-09-05T07:17:23.862Z,65.97
2018-09-05T07:18:29.625Z,65.72
2018-09-05T07:19:34.376Z,65.72
2018-09-05T07:20:39.811Z,64.41
2018-09-05T07:21:44.754Z,63.47
2018-09-05T07:22:49.611Z,63.15
2018-09-05T07:23:55.391Z,61.98
2018-09-05T07:25:00.454Z,60.18
2018-09-05T07:26:05.201Z,60.12
2018-09-05T07:27:10.792Z,59.52
2018-09-05T07:28:15.568Z,60.78
2018-09-05T07:29:20.727Z,60.19
2018-09-05T07:30:26.494Z,60.01
2018-09-05T07:31:32.725Z,59.65
2018-09-05T07:32:37.640Z,59.24
2018-09-05T07:33:43.235Z,59.44
2018-09-05T07:34:49.629Z,59.01
2018-09-05T07:35:54.326Z,59.30
2018-09-05T07:36:59.169Z,58.10
2018-09-05T07:38:04.353Z,57.72
2018-09-05T07:39:10.569Z,57.75
2018-09-05T07:40:16.201Z,56.93
2018-09-05T07:41:20.955Z,56.58
2018-09-05T07:42:28.572Z,55.17
2018-09-05T07:43:35.104Z,55.09
2018-09-05T07:44:39.773Z,56.00
2018-09-05T07:45:46.050Z,54.42
2018-09-05T07:46:51.604Z,52.77
2018-09-05T07:47:57.696Z,52.44
2018-09-05T07:49:03.733Z,51.91
2018-09-05T07:50:08.956Z,51.59
2018-09-05T07:51:14.139Z,49.99
2018-09-05T07:52:18.877Z,50.24
2018-09-05T07:53:24.096Z,50.34
2018-09-05T07:54:29.524Z,50.03
2018-09-05T07:55:35.000Z,50.59
2018-09-05T07:56:41.477Z,49.78
2018-09-05T07:57:46.416Z,50.65
2018-09-05T07:58:52.646Z,50.77
2018-09-05T07:59:58.688Z,49.54
2018-09-05T08:01:05.773Z,48.27
2018-09-05T08:02:12.005Z,48.01
2018-09-05T08:03:16.778Z,47.51
2018-09-05T08:04:21.647Z,46.46
2018-09-05T08:05:28.156Z,47.01
2018-09-05T08:06:33.046Z,47.24
2018-09-05T08:07:38.190Z,46.98
2018-09-05T08:08:42.932Z,47.12
2018-09-05T08:09:47.650Z,49.14
2018-09-05T08:10:52.498Z,50.14
2018-09-05T08:11:57.265Z,50.48
2018-09-05T08:13:02.947Z,50.51
2018-09-05T08:14:08.008Z,49.64
2018-09-05T08:15:12.636Z,49.94
2018-09-05T08:16:17.407Z,50.90
2018-09-05T08:17:26.773Z,52.00
2018-09-05T08:18:33.869Z,51.00
2018-09-05T08:19:40.015Z,52.58
2018-09-05T08:20:45.423Z,53.18
2018-09-05T08:21:50.070Z,51.98
2018-09-05T08:22:55.045Z,53.32
2018-09-05T08:23:59.833Z,53.42
2018-09-05T08:25:09.083Z,53.85
2018-09-05T08:26:17.612Z,54.04
2018-09-05T08:27:23.238Z,52.92
2018-09-05T08:28:29.110Z,53.85
2018-09-05T08:29:33.883Z,52.37
2018-09-05T08:30:38.854Z,53.75
2018-09-05T08:31:43.702Z,52.41
2018-09-05T08:32:48.420Z,52.41
2018-09-05T08:33:53.560Z,53.85
2018-09-05T08:34:58.326Z,52.74
2018-09-05T08:36:05.597Z,52.92
2018-09-05T08:37:11.149Z,52.81
2018-09-05T08:38:15.853Z,52.69
2018-09-05T08:39:21.735Z,52.06
2018-09-05T08:40:26.351Z,52.00
2018-09-05T08:41:31.092Z,51.75
2018-09-05T08:42:36.902Z,52.54
2018-09-05T08:43:42.441Z,51.08
2018-09-05T08:44:47.178Z,51.34
2018-09-05T08:45:52.074Z,52.58
2018-09-05T08:46:56.633Z,52.81
2018-09-05T08:48:02.074Z,52.79
2018-09-05T08:49:10.318Z,53.25
2018-09-05T08:51:33.031Z,52.14
2018-09-05T08:52:37.716Z,52.92
2018-09-05T08:53:43.248Z,53.01
2018-09-05T08:54:47.917Z,52.13
2018-09-05T08:55:52.577Z,52.10
2018-09-05T08:56:59.303Z,52.80
2018-09-05T08:58:05.057Z,53.49
2018-09-05T08:59:10.334Z,53.81
2018-09-05T09:00:15.676Z,53.08
2018-09-05T09:01:20.669Z,54.78
2018-09-05T09:02:25.422Z,54.71
2018-09-05T09:03:30.453Z,53.29
2018-09-05T09:04:35.123Z,53.72
2018-09-05T09:05:39.788Z,52.90
2018-09-05T09:06:44.507Z,52.77
2018-09-05T09:07:49.933Z,52.22
2018-09-05T09:08:54.553Z,52.77
2018-09-05T09:09:59.950Z,51.89
2018-09-05T09:11:04.736Z,51.68
2018-09-05T09:12:12.428Z,52.80
2018-09-05T09:13:17.792Z,51.58
2018-09-05T09:14:23.092Z,51.28
2018-09-05T09:15:27.846Z,51.88
2018-09-05T09:16:33.011Z,52.21
2018-09-05T09:17:40.713Z,52.17
2018-09-05T09:18:45.503Z,53.04
2018-09-05T09:19:50.320Z,53.45
2018-09-05T09:20:55.086Z,52.41
2018-09-05T09:21:59.807Z,51.96
2018-09-05T09:23:04.940Z,50.46
2018-09-05T09:24:10.880Z,50.14
2018-09-05T09:25:15.551Z,50.15
2018-09-05T09:26:20.256Z,49.77
2018-09-05T09:27:25.072Z,50.31
2018-09-05T09:28:30.304Z,49.54
2018-09-05T09:29:36.423Z,51.06
2018-09-05T09:30:42.557Z,50.91
2018-09-05T09:31:47.765Z,51.15
2018-09-05T09:32:52.473Z,50.74
2018-09-05T09:33:57.125Z,50.42
2018-09-05T09:35:02.539Z,49.19
2018-09-05T09:36:09.632Z,48.93
2018-09-05T09:37:14.369Z,50.66
2018-09-05T09:38:19.368Z,50.02
2018-09-05T09:39:24.090Z,49.72
2018-09-05T09:40:29.620Z,51.15
2018-09-05T09:41:35.151Z,50.05
2018-09-05T09:42:40.925Z,50.19
2018-09-05T09:43:46.278Z,50.42
2018-09-05T09:44:52.549Z,50.36
2018-09-05T09:45:57.278Z,50.06
2018-09-05T09:47:02.350Z,49.88
2018-09-05T09:48:07.064Z,50.51
2018-09-05T09:49:13.281Z,50.16
2018-09-05T09:50:18.540Z,49.64
2018-09-05T09:51:24.158Z,50.08
2018-09-05T09:52:28.866Z,49.39
2018-09-05T09:53:33.550Z,49.93
2018-09-05T09:54:39.312Z,50.65
2018-09-05T09:55:45.050Z,49.85
2018-09-05T09:56:52.012Z,50.01
2018-09-05T09:57:56.777Z,50.01
2018-09-05T09:59:01.548Z,49.23
2018-09-05T10:00:09.932Z,0.00
2018-09-05T10:01:19.863Z,49.39
2018-09-05T10:02:29.455Z,48.76
2018-09-05T10:03:40.162Z,48.36
2018-09-05T10:04:53.695Z,49.89
2018-09-05T10:06:04.271Z,49.15
2018-09-05T10:07:14.308Z,47.88
2018-09-05T10:09:37.626Z,47.04
2018-09-05T10:10:50.804Z,47.82
2018-09-05T10:14:07.570Z,100.00
2018-09-05T10:15:14.668Z,46.45
2018-09-05T10:16:28.153Z,100.00
2018-09-05T10:17:38.826Z,45.54
2018-09-05T10:18:47.003Z,46.06
2018-09-05T10:19:58.620Z,93.98
2018-09-05T10:21:06.779Z,43.45
2018-09-05T10:22:11.450Z,43.59
2018-09-05T10:23:17.742Z,44.25
2018-09-05T10:24:23.622Z,100.00
2018-09-05T10:25:29.360Z,100.00
2018-09-05T10:26:34.351Z,41.90
2018-09-05T10:27:39.224Z,42.75
2018-09-05T10:28:45.094Z,43.08
2018-09-05T10:29:52.655Z,43.67
2018-09-05T10:33:19.760Z,42.30
2018-09-05T10:34:25.999Z,42.34
2018-09-05T10:35:35.677Z,100.00
2018-09-05T10:36:41.315Z,40.56
2018-09-05T10:37:47.937Z,39.31
2018-09-05T10:38:59.053Z,41.46
2018-09-05T10:40:08.480Z,41.26
2018-09-05T10:41:15.697Z,42.81
2018-09-05T10:42:21.723Z,43.35
2018-09-05T10:43:32.667Z,43.21
2018-09-05T10:44:38.998Z,42.02
2018-09-05T10:45:43.742Z,42.36
2018-09-05T10:46:48.718Z,42.02
2018-09-05T10:47:54.675Z,42.23
2018-09-05T10:48:59.449Z,41.43
2018-09-05T10:50:04.541Z,40.97
2018-09-05T10:51:09.395Z,39.22
2018-09-05T10:52:15.200Z,40.04
2018-09-05T10:53:19.912Z,100.00
2018-09-05T10:54:25.347Z,0.00
2018-09-05T10:55:32.355Z,100.00
2018-09-05T10:56:37.837Z,40.75
2018-09-05T10:57:43.364Z,42.26
2018-09-05T10:58:48.045Z,40.57
2018-09-05T10:59:53.964Z,40.86
2018-09-05T11:00:59.292Z,41.01
2018-09-05T11:02:05.429Z,40.23
2018-09-05T11:03:10.224Z,40.42
2018-09-05T11:04:15.514Z,41.20
2018-09-05T11:05:24.519Z,40.64
2018-09-05T11:06:29.269Z,39.13
2018-09-05T11:07:34.009Z,39.75
2018-09-05T11:08:39.004Z,39.85
2018-09-05T11:09:44.569Z,40.50
2018-09-05T11:10:49.318Z,39.44
2018-09-05T11:11:54.962Z,40.44
2018-09-05T11:13:01.226Z,39.13
2018-09-05T11:14:06.676Z,39.45
2018-09-05T11:15:11.818Z,39.82
2018-09-05T11:16:16.927Z,38.79
2018-09-05T11:17:30.279Z,38.88
2018-09-05T11:18:35.179Z,38.30
2018-09-05T11:19:40.303Z,37.48
2018-09-05T11:20:45.233Z,37.07
2018-09-05T11:21:50.531Z,36.42
2018-09-05T11:22:55.384Z,34.92
2018-09-05T11:24:00.316Z,35.04
2018-09-05T11:25:05.024Z,35.75
2018-09-05T11:26:10.422Z,34.54
2018-09-05T11:27:15.201Z,35.42
2018-09-05T11:28:20.203Z,34.09
2018-09-05T11:29:24.877Z,33.38
2018-09-05T11:30:31.091Z,33.47
2018-09-05T11:31:37.602Z,32.95
2018-09-05T11:32:42.607Z,33.92
2018-09-05T11:33:47.279Z,34.09
2018-09-05T11:34:52.029Z,35.76
2018-09-05T11:35:56.781Z,35.09
2018-09-05T11:37:01.568Z,36.18
2018-09-05T11:38:06.214Z,34.79
2018-09-05T11:39:13.611Z,35.01
2018-09-05T11:40:18.596Z,34.69
2018-09-05T11:41:23.346Z,35.07
2018-09-05T11:42:28.166Z,36.09
2018-09-05T11:43:33.657Z,36.08
2018-09-05T11:44:39.022Z,35.07
2018-09-05T11:45:44.025Z,34.30
2018-09-05T11:46:48.674Z,33.14
2018-09-05T11:47:53.285Z,33.33
2018-09-05T11:48:59.432Z,31.93
2018-09-05T11:50:04.212Z,32.00
2018-09-05T11:51:09.154Z,32.36
2018-09-05T11:52:14.750Z,31.50
2018-09-05T11:53:19.422Z,32.34
2018-09-05T11:54:24.139Z,32.21
2018-09-05T11:55:29.556Z,32.24
2018-09-05T11:56:35.084Z,32.62
2018-09-05T11:57:40.083Z,32.57
2018-09-05T11:58:44.785Z,33.91
2018-09-05T11:59:50.300Z,33.23
2018-09-05T12:00:55.541Z,33.41
2018-09-05T12:02:01.636Z,32.51
2018-09-05T12:03:07.021Z,32.19
2018-09-05T12:04:12.217Z,31.09
2018-09-05T12:05:17.321Z,31.11
2018-09-05T12:06:23.279Z,31.37
2018-09-05T12:07:28.574Z,30.88
2018-09-05T12:08:33.504Z,31.45
2018-09-05T12:09:38.268Z,31.84
2018-09-05T12:10:44.008Z,31.98
2018-09-05T12:11:49.712Z,31.73
2018-09-05T12:12:55.084Z,31.41
2018-09-05T12:14:00.817Z,28.84
2018-09-05T12:15:07.401Z,29.23
2018-09-05T12:16:12.316Z,28.61
2018-09-05T12:17:18.403Z,29.19
2018-09-05T12:18:24.031Z,29.96
2018-09-05T12:19:28.776Z,30.11
2018-09-05T12:20:33.468Z,30.76
2018-09-05T12:21:38.408Z,30.86
2018-09-05T12:22:43.115Z,30.50
2018-09-05T12:23:48.502Z,30.34
2018-09-05T12:24:53.187Z,30.67
2018-09-05T12:25:59.649Z,30.64
2018-09-05T12:27:04.738Z,31.15
2018-09-05T12:29:31.193Z,31.57
2018-09-05T12:30:36.295Z,30.84
2018-09-05T12:31:42.524Z,30.84
2018-09-05T12:32:47.687Z,30.74
2018-09-05T12:33:52.502Z,31.04
2018-09-05T12:34:57.437Z,30.95
2018-09-05T12:36:02.490Z,31.29
2018-09-05T12:37:07.224Z,30.85
2018-09-05T12:38:12.115Z,31.11
2018-09-05T12:39:16.901Z,30.58
2018-09-05T12:40:21.644Z,29.80
2018-09-05T12:41:26.352Z,30.08
2018-09-05T12:42:31.214Z,28.92
2018-09-05T12:43:37.807Z,29.59
2018-09-05T12:44:43.526Z,28.98
2018-09-05T12:45:49.793Z,27.99
2018-09-05T12:46:55.034Z,27.40
2018-09-05T12:48:00.229Z,28.15
2018-09-05T12:49:07.662Z,29.31
2018-09-05T12:50:19.830Z,28.40
2018-09-05T12:51:26.583Z,27.89
2018-09-05T12:52:32.273Z,27.78
2018-09-05T12:53:38.378Z,27.93
2018-09-05T12:54:43.289Z,27.29
2018-09-05T12:55:48.879Z,25.45
2018-09-05T12:56:53.677Z,25.21
2018-09-05T12:57:58.552Z,25.09
2018-09-05T12:59:03.319Z,25.36
2018-09-05T13:00:08.124Z,26.52
2018-09-05T13:01:13.695Z,28.75
2018-09-05T13:02:18.506Z,29.69
2018-09-05T13:03:25.225Z,29.42
2018-09-05T13:04:31.529Z,27.92
2018-09-05T13:05:36.312Z,27.17
2018-09-05T13:06:42.455Z,25.85
2018-09-05T13:07:47.783Z,24.53
2018-09-05T13:08:53.290Z,24.08
2018-09-05T13:09:57.993Z,24.52
2018-09-05T13:11:02.754Z,25.11
2018-09-05T13:12:08.936Z,26.30
2018-09-05T13:13:14.472Z,27.58
2018-09-05T13:14:19.995Z,28.89
2018-09-05T13:15:27.626Z,29.26
2018-09-05T13:16:33.377Z,28.38
2018-09-05T13:17:39.010Z,29.86
2018-09-05T13:18:43.765Z,28.98
2018-09-05T13:19:50.144Z,29.93
2018-09-05T13:20:54.793Z,30.17
2018-09-05T13:22:00.445Z,30.37
2018-09-05T13:23:07.420Z,32.07
2018-09-05T13:24:13.307Z,32.19
2018-09-05T13:25:18.986Z,31.37
2018-09-05T13:26:24.180Z,31.63
2018-09-05T13:27:28.896Z,31.50
2018-09-05T13:28:35.174Z,32.26
2018-09-05T13:29:43.342Z,32.38
2018-09-05T13:30:48.038Z,32.61
2018-09-05T13:31:53.343Z,32.35
2018-09-05T13:32:59.349Z,33.07
2018-09-05T13:34:04.040Z,33.05
2018-09-05T13:35:10.584Z,33.24
2018-09-05T13:36:16.287Z,33.03
2018-09-05T13:37:23.595Z,32.97
2018-09-05T13:38:29.590Z,32.66
2018-09-05T13:39:34.694Z,33.07
2018-09-05T13:40:39.908Z,33.28
2018-09-05T13:41:44.929Z,33.27
2018-09-05T13:42:49.438Z,32.79
2018-09-05T13:45:05.358Z,33.43
2018-09-05T13:46:12.376Z,33.72
2018-09-05T13:47:17.146Z,34.38
2018-09-05T13:48:21.669Z,33.73
2018-09-05T13:49:27.772Z,33.73
2018-09-05T13:50:36.199Z,33.07
2018-09-05T13:51:44.859Z,34.21
2018-09-05T13:52:50.730Z,33.98
2018-09-05T13:53:59.295Z,33.87
2018-09-05T13:55:03.726Z,33.91
2018-09-05T13:56:08.192Z,33.65
2018-09-05T13:57:13.575Z,34.25
2018-09-05T13:58:17.954Z,33.91
2018-09-05T13:59:23.433Z,33.19
2018-09-05T14:00:28.607Z,33.87
2018-09-05T14:01:33.868Z,33.58
2018-09-05T14:02:38.399Z,33.98
2018-09-05T14:03:42.852Z,33.76
2018-09-05T14:04:47.926Z,34.53
2018-09-05T14:05:53.209Z,33.95
2018-09-05T14:06:58.629Z,34.22
2018-09-05T14:08:03.420Z,34.04
2018-09-05T14:09:09.312Z,33.91
2018-09-05T14:10:14.346Z,30.70
2018-09-05T14:11:18.732Z,28.38
2018-09-05T14:12:24.215Z,27.64